Terminal Aerodrome Forecast
Issued by NWS Flagstaff, AZ

Current Version | Previous Version | Text Only | Print | Product List | Glossary On
Versions: 1 2 3 4 5 6 7 8 9 10 11 12 13 14 15 16 17
974
FTUS45 KFGZ 232327
TAFINW
TAF
KINW 232327Z 2400/2424 18012G22KT P6SM SCT080 OVC120
      TEMPO 2401/2403 VRB15G25KT 5SM -TSRA BKN080CB
     FM240330 VRB06KT P6SM FEW080 BKN120
     FM241700 24007KT P6SM VCSH SCT080 BKN100=

USA.gov is the U.S. government's official web portal to all federal, state and local government web resources and services.